Barnstead, New Hampshire
Current Conditions -  °F | °C
As of 11:51 PM on Saturday 25 Oct 2014 (Local Time) from KCON Reporting Station
Clear Clear  
Wind Chill: 50°   Ceiling: Unl
Heat Index: 50°   Visibility: 10mi
Dew Point: 43°   Wind: 3mph
Humidity: 77%   Direction: 200°SSW
Pressure: 29.48"   Gusts: NA
Location:  43.33°N, 71.29°W
Report Text: KCON 260351Z AUTO 20003KT 10SM CLR 10/06 A2948 RMK AO2 SLP981 T01000061
Loading
Personal Weather Stations






























Interactive Weather Map
Tropical Storm Tracking
New forecast layout! Learn more

10-Day Weather Forecast

Advertisements
Track Severe Weather on mobile